createdAt,value
2023-05-05T00:00:03.285Z,33.22
2023-05-05T00:01:03.262Z,33.25
2023-05-05T00:02:03.274Z,33.25
2023-05-05T00:03:03.433Z,33.23
2023-05-05T00:04:03.305Z,33.20
2023-05-05T00:05:03.322Z,33.23
2023-05-05T00:06:03.335Z,33.23
2023-05-05T00:07:03.444Z,33.22
2023-05-05T00:08:03.330Z,33.25
2023-05-05T00:09:03.357Z,33.23
2023-05-05T00:10:03.360Z,33.20
2023-05-05T00:11:03.409Z,33.22
2023-05-05T00:12:03.404Z,33.18
2023-05-05T00:13:03.463Z,33.22
2023-05-05T00:14:03.417Z,33.22
2023-05-05T00:15:03.421Z,33.19
2023-05-05T00:16:03.538Z,33.22
2023-05-05T00:17:03.489Z,33.20
2023-05-05T00:18:03.494Z,33.18
2023-05-05T00:19:03.444Z,33.20
2023-05-05T00:20:03.507Z,33.22
2023-05-05T00:21:03.485Z,33.19
2023-05-05T00:22:03.544Z,33.18
2023-05-05T00:23:03.548Z,33.13
2023-05-05T00:24:03.563Z,33.22
2023-05-05T00:25:03.570Z,33.20
2023-05-05T00:26:03.590Z,33.19
2023-05-05T00:27:03.598Z,33.13
2023-05-05T00:28:03.647Z,33.17
2023-05-05T00:29:03.625Z,33.15
2023-05-05T00:30:03.605Z,33.22
2023-05-05T00:31:03.756Z,33.16
2023-05-05T00:32:03.647Z,33.12
2023-05-05T00:33:03.766Z,33.15
2023-05-05T00:34:03.696Z,33.16
2023-05-05T00:35:03.708Z,33.13
2023-05-05T00:36:03.716Z,33.15
2023-05-05T00:37:03.757Z,33.16
2023-05-05T00:38:03.735Z,33.19
2023-05-05T00:39:03.755Z,33.11
2023-05-05T00:40:03.807Z,33.16
2023-05-05T00:41:03.781Z,33.14
2023-05-05T00:42:03.953Z,33.13
2023-05-05T00:43:03.780Z,33.16
2023-05-05T00:44:03.860Z,33.14
2023-05-05T00:45:03.838Z,33.16
2023-05-05T00:46:03.898Z,33.11
2023-05-05T00:47:03.843Z,33.12
2023-05-05T00:48:03.932Z,33.11
2023-05-05T00:49:03.950Z,33.13
2023-05-05T00:50:03.902Z,33.11
2023-05-05T00:51:03.905Z,33.13
2023-05-05T00:52:03.920Z,33.10
2023-05-05T00:53:03.977Z,33.19
2023-05-05T00:54:03.924Z,33.12
2023-05-05T00:55:03.944Z,33.16
2023-05-05T00:56:03.969Z,33.08
2023-05-05T00:57:04.000Z,33.10
2023-05-05T00:58:04.031Z,33.13
2023-05-05T00:59:04.004Z,33.11
2023-05-05T01:00:04.086Z,33.12
2023-05-05T01:01:04.041Z,33.13
2023-05-05T01:02:04.115Z,33.07
2023-05-05T01:03:04.564Z,33.09
2023-05-05T01:04:04.156Z,33.09
2023-05-05T01:05:04.224Z,33.07
2023-05-05T01:06:04.111Z,33.11
2023-05-05T01:07:04.121Z,33.09
2023-05-05T01:08:04.129Z,33.12
2023-05-05T01:09:04.183Z,33.12
2023-05-05T01:10:15.674Z,33.12
2023-05-05T01:11:05.163Z,33.09
2023-05-05T01:12:04.140Z,33.07
2023-05-05T01:13:04.226Z,33.07
2023-05-05T01:14:04.131Z,33.10
2023-05-05T01:15:04.146Z,33.06
2023-05-05T01:16:04.195Z,33.06
2023-05-05T01:17:04.142Z,33.06
2023-05-05T01:18:04.524Z,33.07
2023-05-05T01:19:04.127Z,33.07
2023-05-05T01:20:04.141Z,33.09
2023-05-05T01:21:04.136Z,33.07
2023-05-05T01:22:04.130Z,33.07
2023-05-05T01:23:04.095Z,33.06
2023-05-05T01:24:04.072Z,33.07
2023-05-05T01:25:04.076Z,33.05
2023-05-05T01:26:04.116Z,33.06
2023-05-05T01:27:04.033Z,33.05
2023-05-05T01:28:04.049Z,33.07
2023-05-05T01:29:04.057Z,33.03
2023-05-05T01:30:04.067Z,33.02
2023-05-05T01:31:04.002Z,33.02
2023-05-05T01:32:04.112Z,32.99
2023-05-05T01:33:04.006Z,33.03
2023-05-05T01:34:04.022Z,33.02
2023-05-05T01:35:04.022Z,33.03
2023-05-05T01:36:04.014Z,33.05
2023-05-05T01:37:04.009Z,33.02
2023-05-05T01:38:04.058Z,33.04
2023-05-05T01:39:04.069Z,33.01
2023-05-05T01:40:04.213Z,33.02
2023-05-05T01:41:04.079Z,33.06
2023-05-05T01:42:04.107Z,33.06
2023-05-05T01:43:04.115Z,33.04
2023-05-05T01:44:04.116Z,33.02
2023-05-05T01:45:04.133Z,33.02
2023-05-05T01:46:04.234Z,33.02
2023-05-05T01:47:04.186Z,32.99
2023-05-05T01:48:04.509Z,32.99
2023-05-05T01:49:04.196Z,33.06
2023-05-05T01:50:04.233Z,32.99
2023-05-05T01:51:04.244Z,32.99
2023-05-05T01:52:04.257Z,33.02
2023-05-05T01:53:04.289Z,33.02
2023-05-05T01:54:04.303Z,33.00
2023-05-05T01:55:04.307Z,32.99
2023-05-05T01:56:04.332Z,33.02
2023-05-05T01:57:04.345Z,33.02
2023-05-05T01:58:04.340Z,33.00
2023-05-05T01:59:04.360Z,32.99
2023-05-05T02:00:04.413Z,33.00
2023-05-05T02:01:04.445Z,32.99
2023-05-05T02:02:04.513Z,32.97
2023-05-05T02:03:04.574Z,32.99
2023-05-05T02:04:04.510Z,32.97
2023-05-05T02:05:04.513Z,32.97
2023-05-05T02:06:04.590Z,32.95
2023-05-05T02:07:04.563Z,32.97
2023-05-05T02:08:04.988Z,32.93
2023-05-05T02:09:04.596Z,32.97
2023-05-05T02:10:04.684Z,32.96
2023-05-05T02:11:04.642Z,32.95
2023-05-05T02:12:04.656Z,32.96
2023-05-05T02:13:04.865Z,32.96
2023-05-05T02:14:04.770Z,32.99
2023-05-05T02:15:04.719Z,32.93
2023-05-05T02:16:04.783Z,32.97
2023-05-05T02:17:04.755Z,32.96
2023-05-05T02:18:04.794Z,32.96
2023-05-05T02:19:04.848Z,32.96
2023-05-05T02:20:04.897Z,32.92
2023-05-05T02:21:04.820Z,32.97
2023-05-05T02:22:04.855Z,32.92
2023-05-05T02:23:04.875Z,32.96
2023-05-05T02:24:04.908Z,32.95
2023-05-05T02:25:04.955Z,32.96
2023-05-05T02:26:04.960Z,32.95
2023-05-05T02:27:04.939Z,32.89
2023-05-05T02:28:05.010Z,32.92
2023-05-05T02:29:05.006Z,32.92
2023-05-05T02:30:05.098Z,32.97
2023-05-05T02:31:05.053Z,32.92
2023-05-05T02:32:05.078Z,32.93
2023-05-05T02:33:05.143Z,32.95
2023-05-05T02:34:05.072Z,32.95
2023-05-05T02:35:05.122Z,32.95
2023-05-05T02:36:05.138Z,32.93
2023-05-05T02:37:05.144Z,32.96
2023-05-05T02:38:05.176Z,32.95
2023-05-05T02:39:05.169Z,32.95
2023-05-05T02:40:05.314Z,32.89
2023-05-05T02:41:05.249Z,32.92
2023-05-05T02:42:05.278Z,32.95
2023-05-05T02:43:05.296Z,32.93
2023-05-05T02:44:05.297Z,32.90
2023-05-05T02:45:05.323Z,32.90
2023-05-05T02:46:05.435Z,32.95
2023-05-05T02:47:05.338Z,32.92
2023-05-05T02:48:05.555Z,32.95
2023-05-05T02:49:05.429Z,32.96
2023-05-05T02:50:05.536Z,32.88
2023-05-05T02:51:05.459Z,32.94
2023-05-05T02:52:05.468Z,32.95
2023-05-05T02:53:05.518Z,32.93
2023-05-05T02:54:05.555Z,32.90
2023-05-05T02:55:05.569Z,32.93
2023-05-05T02:56:05.585Z,32.87
2023-05-05T02:57:05.577Z,32.96
2023-05-05T02:58:05.575Z,32.90
2023-05-05T02:59:05.659Z,32.90
2023-05-05T03:00:05.831Z,32.89
2023-05-05T03:01:05.675Z,32.89
2023-05-05T03:02:05.665Z,32.95
2023-05-05T03:03:05.771Z,32.93
2023-05-05T03:04:05.718Z,32.90
2023-05-05T03:05:05.796Z,32.91
2023-05-05T03:06:05.814Z,32.90
2023-05-05T03:07:05.787Z,32.86
2023-05-05T03:08:05.868Z,32.91
2023-05-05T03:09:05.867Z,32.89
2023-05-05T03:10:06.224Z,32.94
2023-05-05T03:11:05.942Z,32.94
2023-05-05T03:12:05.923Z,32.93
2023-05-05T03:13:06.023Z,32.87
2023-05-05T03:14:05.975Z,32.90
2023-05-05T03:15:05.998Z,32.89
2023-05-05T03:16:06.016Z,32.90
2023-05-05T03:17:06.041Z,32.91
2023-05-05T03:18:06.553Z,32.89
2023-05-05T03:19:06.111Z,32.87
2023-05-05T03:20:06.302Z,32.87
2023-05-05T03:21:06.178Z,32.86
2023-05-05T03:22:06.212Z,32.87
2023-05-05T03:23:06.216Z,32.84
2023-05-05T03:24:06.272Z,32.87
2023-05-05T03:25:06.300Z,32.93
2023-05-05T03:26:06.352Z,32.87
2023-05-05T03:27:06.319Z,32.89
2023-05-05T03:28:06.363Z,32.89
2023-05-05T03:29:06.361Z,32.86
2023-05-05T03:30:06.582Z,32.87
2023-05-05T03:31:06.446Z,32.90
2023-05-05T03:32:06.541Z,32.89
2023-05-05T03:33:06.583Z,32.87
2023-05-05T03:34:06.536Z,32.86
2023-05-05T03:35:06.545Z,32.87
2023-05-05T03:36:06.618Z,32.91
2023-05-05T03:37:06.590Z,32.89
2023-05-05T03:38:06.665Z,32.87
2023-05-05T03:39:06.698Z,32.90
2023-05-05T03:40:06.922Z,32.89
2023-05-05T03:41:06.686Z,32.85
2023-05-05T03:42:06.788Z,32.82
2023-05-05T03:43:06.754Z,32.83
2023-05-05T03:44:06.779Z,32.82
2023-05-05T03:45:06.825Z,32.87
2023-05-05T03:46:06.938Z,32.83
2023-05-05T03:47:06.862Z,32.84
2023-05-05T03:48:06.991Z,32.84
2023-05-05T03:49:06.951Z,32.87
2023-05-05T03:50:07.168Z,32.82
2023-05-05T03:51:06.982Z,32.83
2023-05-05T03:52:07.035Z,32.86
2023-05-05T03:53:07.564Z,32.83
2023-05-05T03:54:07.090Z,32.90
2023-05-05T03:55:07.147Z,32.87
2023-05-05T03:56:07.245Z,32.87
2023-05-05T03:57:07.159Z,32.80
2023-05-05T03:58:07.229Z,32.84
2023-05-05T03:59:07.219Z,32.87
2023-05-05T04:00:07.545Z,32.84
2023-05-05T04:01:07.299Z,32.85
2023-05-05T04:02:07.332Z,32.91
2023-05-05T04:03:07.507Z,32.87
2023-05-05T04:04:07.377Z,32.85
2023-05-05T04:05:07.417Z,32.89
2023-05-05T04:06:08.068Z,32.80
2023-05-05T04:07:07.451Z,32.84
2023-05-05T04:08:07.492Z,32.82
2023-05-05T04:09:07.530Z,32.84
2023-05-05T04:10:07.824Z,32.87
2023-05-05T04:11:07.584Z,32.84
2023-05-05T04:12:07.636Z,32.87
2023-05-05T04:13:07.674Z,32.79
2023-05-05T04:14:07.663Z,32.81
2023-05-05T04:15:07.716Z,32.84
2023-05-05T04:16:07.753Z,32.81
2023-05-05T04:17:07.718Z,32.84
2023-05-05T04:18:07.847Z,32.80
2023-05-05T04:19:08.408Z,32.79
2023-05-05T04:20:08.119Z,32.80
2023-05-05T04:21:07.887Z,32.83
2023-05-05T04:22:07.888Z,32.86
2023-05-05T04:23:07.917Z,32.83
2023-05-05T04:24:07.946Z,32.86
2023-05-05T04:25:07.961Z,32.83
2023-05-05T04:26:07.954Z,32.79
2023-05-05T04:27:07.979Z,32.77
2023-05-05T04:28:08.005Z,32.79
2023-05-05T04:29:08.043Z,32.79
2023-05-05T04:30:08.268Z,32.83
2023-05-05T04:31:08.132Z,32.86
2023-05-05T04:32:08.119Z,32.77
2023-05-05T04:33:08.175Z,32.81
2023-05-05T04:34:08.226Z,32.76
2023-05-05T04:35:08.212Z,32.81
2023-05-05T04:36:08.231Z,32.81
2023-05-05T04:37:08.272Z,32.80
2023-05-05T04:38:08.304Z,32.79
2023-05-05T04:39:08.329Z,32.80
2023-05-05T04:40:08.591Z,32.80
2023-05-05T04:41:08.457Z,32.79
2023-05-05T04:42:08.383Z,32.83
2023-05-05T04:43:08.443Z,32.77
2023-05-05T04:44:08.450Z,32.80
2023-05-05T04:45:08.499Z,32.79
2023-05-05T04:46:08.587Z,32.81
2023-05-05T04:47:08.574Z,32.79
2023-05-05T04:48:08.606Z,32.80
2023-05-05T04:49:08.601Z,32.81
2023-05-05T04:50:08.905Z,32.79
2023-05-05T04:51:08.714Z,32.80
2023-05-05T04:52:08.740Z,32.77
2023-05-05T04:53:08.752Z,32.79
2023-05-05T04:54:08.771Z,32.77
2023-05-05T04:55:08.798Z,32.80
2023-05-05T04:56:08.854Z,32.80
2023-05-05T04:57:08.888Z,32.84
2023-05-05T04:58:09.034Z,32.81
2023-05-05T04:59:08.954Z,32.76
2023-05-05T05:00:09.222Z,32.80
2023-05-05T05:01:09.003Z,32.80
2023-05-05T05:02:09.144Z,32.80
2023-05-05T05:03:09.159Z,32.81
2023-05-05T05:04:09.098Z,32.74
2023-05-05T05:05:09.153Z,32.73
2023-05-05T05:06:09.158Z,32.77
2023-05-05T05:07:09.170Z,32.77
2023-05-05T05:08:09.203Z,32.76
2023-05-05T05:09:09.232Z,32.77
2023-05-05T05:10:09.533Z,32.77
2023-05-05T05:11:09.292Z,32.78
2023-05-05T05:12:09.358Z,32.77
2023-05-05T05:13:11.906Z,32.75
2023-05-05T05:14:09.356Z,32.74
2023-05-05T05:15:09.368Z,32.79
2023-05-05T05:16:09.430Z,32.74
2023-05-05T05:17:09.340Z,32.73
2023-05-05T05:18:09.364Z,32.75
2023-05-05T05:19:09.353Z,32.71
2023-05-05T05:20:09.827Z,32.70
2023-05-05T05:21:09.312Z,32.75
2023-05-05T05:22:09.362Z,32.77
2023-05-05T05:23:09.332Z,32.74
2023-05-05T05:24:09.310Z,32.71
2023-05-05T05:25:09.263Z,32.71
2023-05-05T05:26:09.418Z,32.74
2023-05-05T05:27:10.109Z,32.73
2023-05-05T05:28:10.532Z,32.71
2023-05-05T05:29:09.300Z,32.70
2023-05-05T05:30:09.445Z,32.70
2023-05-05T05:31:09.266Z,32.73
2023-05-05T05:32:09.545Z,32.70
2023-05-05T05:33:09.321Z,32.71
2023-05-05T05:34:12.066Z,32.71
2023-05-05T05:35:09.197Z,32.70
2023-05-05T05:36:09.213Z,32.69
2023-05-05T05:37:09.214Z,32.69
2023-05-05T05:38:09.575Z,32.70
2023-05-05T05:39:09.173Z,32.70
2023-05-05T05:40:09.328Z,32.71
2023-05-05T05:41:09.190Z,32.68
2023-05-05T05:42:09.152Z,32.70
2023-05-05T05:43:09.156Z,32.68
2023-05-05T05:44:09.586Z,32.64
2023-05-05T05:45:09.162Z,32.64
2023-05-05T05:46:09.443Z,32.64
2023-05-05T05:47:09.120Z,32.62
2023-05-05T05:48:09.192Z,32.65
2023-05-05T05:49:10.172Z,32.59
2023-05-05T05:50:09.258Z,32.65
2023-05-05T05:51:09.100Z,32.68
2023-05-05T05:52:09.116Z,32.66
2023-05-05T05:53:09.108Z,32.64
2023-05-05T05:54:09.101Z,32.65
2023-05-05T05:55:09.118Z,32.65
2023-05-05T05:56:09.141Z,32.71
2023-05-05T05:57:09.069Z,32.76
2023-05-05T05:58:09.050Z,32.74
2023-05-05T05:59:09.055Z,32.73
2023-05-05T06:00:09.295Z,32.73
2023-05-05T06:01:09.058Z,32.87
2023-05-05T06:02:09.068Z,32.95
2023-05-05T06:03:09.110Z,32.97
2023-05-05T06:04:09.205Z,33.00
2023-05-05T06:05:09.043Z,32.90
2023-05-05T06:06:09.005Z,33.24
2023-05-05T06:07:09.002Z,33.13
2023-05-05T06:08:09.007Z,33.09
2023-05-05T06:09:09.129Z,33.20
2023-05-05T06:10:25.718Z,33.09
2023-05-05T06:11:10.014Z,33.12
2023-05-05T06:12:08.958Z,33.16
2023-05-05T06:13:09.017Z,33.22
2023-05-05T06:14:09.112Z,33.31
2023-05-05T06:15:08.966Z,33.60
2023-05-05T06:16:08.998Z,33.27
2023-05-05T06:17:09.000Z,33.56
2023-05-05T06:18:08.948Z,33.62
2023-05-05T06:19:09.127Z,33.47
2023-05-05T06:20:09.148Z,33.53
2023-05-05T06:21:08.912Z,33.68
2023-05-05T06:22:08.892Z,33.54
2023-05-05T06:23:08.913Z,33.73
2023-05-05T06:24:09.091Z,33.65
2023-05-05T06:25:08.875Z,33.83
2023-05-05T06:26:08.872Z,33.89
2023-05-05T06:27:08.920Z,33.82
2023-05-05T06:28:08.993Z,33.78
2023-05-05T06:29:10.522Z,33.76
2023-05-05T06:30:09.265Z,33.76
2023-05-05T06:31:09.139Z,33.92
2023-05-05T06:32:09.014Z,33.93
2023-05-05T06:33:09.159Z,33.92
2023-05-05T06:34:09.128Z,33.96
2023-05-05T06:35:08.981Z,34.19
2023-05-05T06:36:09.028Z,34.42
2023-05-05T06:37:09.005Z,34.03
2023-05-05T06:38:08.971Z,34.05
2023-05-05T06:39:09.082Z,34.22
2023-05-05T06:40:09.131Z,34.34
2023-05-05T06:41:08.997Z,34.30
2023-05-05T06:42:08.956Z,34.28
2023-05-05T06:43:08.960Z,34.31
2023-05-05T06:44:08.953Z,34.33
2023-05-05T06:45:08.924Z,34.30
2023-05-05T06:46:08.933Z,34.32
2023-05-05T06:47:08.977Z,34.34
2023-05-05T06:48:08.937Z,34.48
2023-05-05T06:49:08.932Z,34.43
2023-05-05T06:50:09.180Z,34.73
2023-05-05T06:51:08.905Z,34.50
2023-05-05T06:52:08.901Z,34.53
2023-05-05T06:53:08.867Z,34.65
2023-05-05T06:54:08.926Z,34.61
2023-05-05T06:55:08.869Z,34.41
2023-05-05T06:56:08.934Z,34.56
2023-05-05T06:57:08.855Z,34.63
2023-05-05T06:58:09.596Z,34.67
2023-05-05T06:59:09.600Z,34.75
2023-05-05T07:00:08.962Z,34.84
2023-05-05T07:01:08.867Z,34.87
2023-05-05T07:02:08.815Z,34.82
2023-05-05T07:03:08.837Z,34.84
2023-05-05T07:04:09.157Z,34.79
2023-05-05T07:05:08.800Z,34.91
2023-05-05T07:06:08.853Z,34.85
2023-05-05T07:07:08.792Z,34.93
2023-05-05T07:08:08.772Z,35.08
2023-05-05T07:09:08.822Z,35.09
2023-05-05T07:10:09.033Z,35.07
2023-05-05T07:11:08.764Z,35.06
2023-05-05T07:12:08.916Z,35.07
2023-05-05T07:13:08.829Z,35.06
2023-05-05T07:14:08.760Z,34.88
2023-05-05T07:15:23.482Z,35.08
2023-05-05T07:16:09.765Z,35.06
2023-05-05T07:17:08.759Z,35.12
2023-05-05T07:18:08.750Z,35.14
2023-05-05T07:19:08.730Z,35.34
2023-05-05T07:20:09.130Z,35.08
2023-05-05T07:21:08.718Z,35.22
2023-05-05T07:22:08.697Z,35.34
2023-05-05T07:23:08.682Z,35.35
2023-05-05T07:24:08.689Z,35.47
2023-05-05T07:25:08.694Z,35.45
2023-05-05T07:26:08.656Z,35.47
2023-05-05T07:27:08.732Z,35.51
2023-05-05T07:28:08.778Z,35.64
2023-05-05T07:29:08.670Z,35.62
2023-05-05T07:30:13.068Z,36.47
2023-05-05T07:31:09.646Z,35.75
2023-05-05T07:32:08.676Z,35.63
2023-05-05T07:33:08.657Z,36.31
2023-05-05T07:34:08.607Z,35.79
2023-05-05T07:35:08.817Z,35.69
2023-05-05T07:36:08.591Z,35.95
2023-05-05T07:37:08.581Z,35.83
2023-05-05T07:38:10.174Z,35.70
2023-05-05T07:39:17.708Z,35.73
2023-05-05T07:40:08.896Z,36.17
2023-05-05T07:41:08.572Z,36.08
2023-05-05T07:42:08.572Z,36.29
2023-05-05T07:43:08.579Z,36.79
2023-05-05T07:44:08.602Z,36.36
2023-05-05T07:45:08.610Z,36.38
2023-05-05T07:46:08.565Z,36.60
2023-05-05T07:47:08.490Z,36.09
2023-05-05T07:48:08.558Z,36.23
2023-05-05T07:49:08.526Z,35.87
2023-05-05T07:50:08.808Z,35.98
2023-05-05T07:51:08.490Z,35.72
2023-05-05T07:52:08.498Z,35.10
2023-05-05T07:53:14.299Z,35.10
2023-05-05T07:54:09.495Z,35.25
2023-05-05T07:55:08.541Z,35.60
2023-05-05T07:56:08.472Z,35.69
2023-05-05T07:57:08.460Z,35.51
2023-05-05T07:58:08.509Z,34.90
2023-05-05T07:59:08.650Z,34.75
2023-05-05T08:00:08.781Z,34.67
2023-05-05T08:01:08.449Z,34.72
2023-05-05T08:02:08.489Z,34.56
2023-05-05T08:03:11.312Z,34.83
2023-05-05T08:04:08.712Z,35.08
2023-05-05T08:05:08.774Z,35.08
2023-05-05T08:06:08.394Z,34.83
2023-05-05T08:07:08.417Z,35.23
2023-05-05T08:08:08.351Z,35.46
2023-05-05T08:09:08.367Z,34.90
2023-05-05T08:10:08.373Z,34.86
2023-05-05T08:11:08.356Z,35.19
2023-05-05T08:12:08.354Z,35.40
2023-05-05T08:13:08.414Z,35.43
2023-05-05T08:14:08.335Z,35.24
2023-05-05T08:15:08.669Z,35.35
2023-05-05T08:16:08.516Z,34.80
2023-05-05T08:17:08.317Z,34.49
2023-05-05T08:18:08.380Z,35.07
2023-05-05T08:19:17.848Z,34.53
2023-05-05T08:20:09.314Z,34.72
2023-05-05T08:21:08.309Z,34.42
2023-05-05T08:22:08.333Z,34.65
2023-05-05T08:23:08.305Z,34.90
2023-05-05T08:24:08.648Z,34.83
2023-05-05T08:25:08.441Z,35.29
2023-05-05T08:26:08.261Z,34.69
2023-05-05T08:27:08.262Z,34.30
2023-05-05T08:28:08.269Z,34.48
2023-05-05T08:29:08.649Z,34.59
2023-05-05T08:30:08.310Z,33.81
2023-05-05T08:31:08.243Z,34.38
2023-05-05T08:32:08.310Z,34.60
2023-05-05T08:33:08.297Z,34.66
2023-05-05T08:34:08.687Z,34.46
2023-05-05T08:35:08.378Z,34.81
2023-05-05T08:36:08.214Z,34.97
2023-05-05T08:37:08.176Z,34.52
2023-05-05T08:38:08.189Z,34.10
2023-05-05T08:39:08.176Z,34.23
2023-05-05T08:40:08.183Z,34.30
2023-05-05T08:41:08.171Z,34.73
2023-05-05T08:42:08.165Z,34.68
2023-05-05T08:43:08.157Z,34.90
2023-05-05T08:44:08.210Z,34.75
2023-05-05T08:45:08.526Z,34.75
2023-05-05T08:46:08.154Z,34.71
2023-05-05T08:47:08.173Z,34.86
2023-05-05T08:48:08.325Z,34.79
2023-05-05T08:49:08.241Z,34.77
2023-05-05T08:50:08.237Z,34.79
2023-05-05T08:51:08.244Z,34.78
2023-05-05T08:52:08.283Z,34.74
2023-05-05T08:53:08.282Z,34.72
2023-05-05T08:54:08.706Z,34.68
2023-05-05T08:55:08.492Z,34.74
2023-05-05T08:56:08.349Z,34.69
2023-05-05T08:57:08.364Z,34.71
2023-05-05T08:58:08.356Z,34.70
2023-05-05T08:59:08.406Z,34.65
2023-05-05T09:00:08.400Z,34.75
2023-05-05T09:01:08.478Z,34.81
2023-05-05T09:02:08.502Z,34.86
2023-05-05T09:03:08.637Z,34.30
2023-05-05T09:04:08.786Z,34.46
2023-05-05T09:05:08.761Z,34.79
2023-05-05T09:06:08.649Z,34.90
2023-05-05T09:07:08.684Z,34.90
2023-05-05T09:08:08.779Z,34.91
2023-05-05T09:09:08.846Z,35.10
2023-05-05T09:10:08.865Z,35.20
2023-05-05T09:11:08.965Z,35.33
2023-05-05T09:12:08.972Z,35.49
2023-05-05T09:13:09.043Z,35.27
2023-05-05T09:14:09.147Z,35.18
2023-05-05T09:15:09.466Z,35.26
2023-05-05T09:16:09.215Z,35.22
2023-05-05T09:17:09.441Z,34.78
2023-05-05T09:18:09.368Z,34.86
2023-05-05T09:19:09.689Z,35.07
2023-05-05T09:20:09.444Z,35.26
2023-05-05T09:21:09.495Z,35.22
2023-05-05T09:22:09.547Z,35.41
2023-05-05T09:23:09.627Z,35.54
2023-05-05T09:24:09.852Z,35.55
2023-05-05T09:25:09.906Z,35.67
2023-05-05T09:26:09.739Z,35.52
2023-05-05T09:27:09.780Z,35.55
2023-05-05T09:28:09.815Z,35.50
2023-05-05T09:29:09.854Z,35.64
2023-05-05T09:30:09.942Z,35.48
2023-05-05T09:31:09.973Z,35.45
2023-05-05T09:32:09.994Z,35.67
2023-05-05T09:33:10.104Z,35.62
2023-05-05T09:34:10.157Z,35.43
2023-05-05T09:35:10.251Z,35.60
2023-05-05T09:36:10.220Z,35.67
2023-05-05T09:37:10.276Z,36.29
2023-05-05T09:38:10.309Z,35.46
2023-05-05T09:39:10.715Z,36.04
2023-05-05T09:40:10.410Z,35.94
2023-05-05T09:41:10.430Z,35.49
2023-05-05T09:42:10.495Z,35.75
2023-05-05T09:43:10.529Z,35.87
2023-05-05T09:44:10.577Z,35.88
2023-05-05T09:45:10.589Z,35.84
2023-05-05T09:46:10.734Z,36.12
2023-05-05T09:47:26.179Z,35.71
2023-05-05T09:48:11.691Z,35.72
2023-05-05T09:49:10.717Z,35.59
2023-05-05T09:50:10.726Z,35.63
2023-05-05T09:51:10.660Z,35.54
2023-05-05T09:52:10.852Z,35.57
2023-05-05T09:53:10.672Z,35.55
2023-05-05T09:54:10.643Z,35.48
2023-05-05T09:55:10.736Z,35.47
2023-05-05T09:56:10.611Z,35.40
2023-05-05T09:57:10.670Z,35.37
2023-05-05T09:58:10.664Z,35.44
2023-05-05T09:59:10.641Z,35.34
2023-05-05T10:00:10.982Z,35.25
2023-05-05T10:01:10.771Z,35.30
2023-05-05T10:02:10.793Z,35.21
2023-05-05T10:03:11.723Z,35.17
2023-05-05T10:04:10.877Z,35.19
2023-05-05T10:05:11.218Z,35.12
2023-05-05T10:06:10.996Z,35.10
2023-05-05T10:07:11.065Z,34.98
2023-05-05T10:08:11.270Z,34.84
2023-05-05T10:09:11.177Z,34.93
2023-05-05T10:10:11.916Z,34.87
2023-05-05T10:11:11.295Z,34.92
2023-05-05T10:12:11.346Z,34.88
2023-05-05T10:13:11.510Z,34.91
2023-05-05T10:14:11.447Z,34.84
2023-05-05T10:15:11.707Z,34.87
2023-05-05T10:16:11.641Z,34.78
2023-05-05T10:17:11.675Z,34.84
2023-05-05T10:18:11.759Z,34.73
2023-05-05T10:19:11.779Z,34.73
2023-05-05T10:20:11.817Z,34.65
2023-05-05T10:21:11.885Z,34.53
2023-05-05T10:22:11.970Z,34.50
2023-05-05T10:23:11.994Z,34.48
2023-05-05T10:24:12.192Z,34.40
2023-05-05T10:25:12.231Z,34.54
2023-05-05T10:26:12.171Z,34.51
2023-05-05T10:27:12.724Z,34.42
2023-05-05T10:28:12.301Z,34.43
2023-05-05T10:29:12.372Z,34.41
2023-05-05T10:30:12.726Z,34.29
2023-05-05T10:31:24.164Z,34.25
2023-05-05T10:32:37.001Z,34.29
2023-05-05T10:33:30.230Z,34.32
2023-05-05T10:34:13.623Z,34.28
2023-05-05T10:35:12.743Z,34.25
2023-05-05T10:36:12.421Z,34.15
2023-05-05T10:37:12.436Z,34.19
2023-05-05T10:38:12.402Z,34.04
2023-05-05T10:39:12.417Z,34.01
2023-05-05T10:40:12.805Z,33.81
2023-05-05T10:41:12.400Z,33.92
2023-05-05T10:42:12.415Z,33.87
2023-05-05T10:43:12.382Z,33.69
2023-05-05T10:44:12.385Z,33.74
2023-05-05T10:45:12.799Z,33.69
2023-05-05T10:46:12.413Z,33.72
2023-05-05T10:47:12.372Z,33.76
2023-05-05T10:48:12.498Z,33.78
2023-05-05T10:49:13.431Z,33.84
2023-05-05T10:50:12.777Z,33.87
2023-05-05T10:51:13.179Z,33.81
2023-05-05T10:52:12.327Z,33.83
2023-05-05T10:53:12.342Z,33.78
2023-05-05T10:54:12.479Z,33.78
2023-05-05T10:55:12.756Z,33.79
2023-05-05T10:56:12.472Z,33.84
2023-05-05T10:57:12.456Z,33.84
2023-05-05T10:58:12.524Z,33.91
2023-05-05T10:59:12.587Z,33.92
2023-05-05T11:00:14.626Z,33.92
2023-05-05T11:01:12.705Z,34.00
2023-05-05T11:02:12.773Z,33.97
2023-05-05T11:03:12.874Z,34.00
2023-05-05T11:04:12.840Z,33.99
2023-05-05T11:05:13.250Z,34.01
2023-05-05T11:06:12.991Z,34.05
2023-05-05T11:07:14.985Z,34.06
2023-05-05T11:08:13.116Z,34.05
2023-05-05T11:09:13.123Z,34.07
2023-05-05T11:10:13.239Z,34.05
2023-05-05T11:11:13.278Z,34.13
2023-05-05T11:12:13.411Z,34.16
2023-05-05T11:13:13.469Z,34.16
2023-05-05T11:14:13.460Z,34.15
2023-05-05T11:15:13.751Z,34.15
2023-05-05T11:16:13.602Z,34.19
2023-05-05T11:17:13.633Z,34.41
2023-05-05T11:18:13.703Z,34.41
2023-05-05T11:19:13.782Z,34.35
2023-05-05T11:20:14.327Z,34.33
2023-05-05T11:21:13.911Z,34.35
2023-05-05T11:22:13.956Z,34.36
2023-05-05T11:23:16.528Z,34.36
2023-05-05T11:24:14.026Z,34.32
2023-05-05T11:25:14.249Z,34.32
2023-05-05T11:26:13.986Z,34.36
2023-05-05T11:27:14.978Z,34.35
2023-05-05T11:28:14.197Z,34.40
2023-05-05T11:29:13.981Z,34.36
2023-05-05T11:30:14.024Z,34.39
2023-05-05T11:31:13.979Z,34.40
2023-05-05T11:32:13.976Z,34.45
2023-05-05T11:33:13.959Z,34.43
2023-05-05T11:34:13.930Z,34.45
2023-05-05T11:35:14.268Z,34.50
2023-05-05T11:36:13.917Z,34.44
2023-05-05T11:37:13.962Z,34.49
2023-05-05T11:38:13.997Z,34.49
2023-05-05T11:39:14.058Z,34.46
2023-05-05T11:40:14.163Z,34.52
2023-05-05T11:41:14.205Z,34.53
2023-05-05T11:42:14.303Z,34.54
2023-05-05T11:43:14.308Z,34.56
2023-05-05T11:44:14.406Z,34.57
2023-05-05T11:45:14.783Z,34.51
2023-05-05T11:46:14.579Z,34.56
2023-05-05T11:47:14.513Z,34.50
2023-05-05T11:48:14.637Z,34.56
2023-05-05T11:49:14.625Z,34.63
2023-05-05T11:50:14.657Z,34.53
2023-05-05T11:51:14.694Z,34.58
2023-05-05T11:52:14.786Z,34.59
2023-05-05T11:53:14.773Z,34.65
2023-05-05T11:54:14.857Z,34.59
2023-05-05T11:55:15.276Z,34.59
2023-05-05T11:56:14.952Z,34.58
2023-05-05T11:57:15.018Z,34.62
2023-05-05T11:58:15.094Z,34.59
2023-05-05T11:59:15.089Z,34.66
2023-05-05T12:00:15.366Z,34.72
2023-05-05T12:01:15.223Z,34.67
2023-05-05T12:02:15.279Z,34.65
2023-05-05T12:03:15.476Z,34.65
2023-05-05T12:04:15.461Z,34.65
2023-05-05T12:05:15.791Z,34.69
2023-05-05T12:06:15.428Z,34.66
2023-05-05T12:07:15.476Z,34.71
2023-05-05T12:08:15.541Z,34.73
2023-05-05T12:09:15.584Z,34.73
2023-05-05T12:10:15.778Z,34.71
2023-05-05T12:11:15.686Z,34.74
2023-05-05T12:12:15.698Z,34.71
2023-05-05T12:13:15.764Z,34.74
2023-05-05T12:14:15.815Z,34.74
2023-05-05T12:15:16.271Z,34.75
2023-05-05T12:16:16.002Z,34.80
2023-05-05T12:17:15.930Z,34.83
2023-05-05T12:18:15.966Z,34.80
2023-05-05T12:19:15.987Z,34.85
2023-05-05T12:20:16.301Z,34.80
2023-05-05T12:21:16.123Z,34.85
2023-05-05T12:22:16.179Z,34.84
2023-05-05T12:23:16.177Z,34.84
2023-05-05T12:24:16.255Z,34.83
2023-05-05T12:25:16.291Z,34.80
2023-05-05T12:26:16.346Z,34.83
2023-05-05T12:27:16.410Z,34.88
2023-05-05T12:28:16.421Z,34.87
2023-05-05T12:29:16.478Z,34.82
2023-05-05T12:30:16.612Z,34.86
2023-05-05T12:31:16.669Z,34.84
2023-05-05T12:32:16.636Z,34.87
2023-05-05T12:33:16.601Z,34.88
2023-05-05T12:34:16.697Z,34.87
2023-05-05T12:35:16.806Z,34.90
2023-05-05T12:36:16.791Z,34.90
2023-05-05T12:37:16.782Z,34.89
2023-05-05T12:38:16.829Z,34.85
2023-05-05T12:39:16.900Z,34.83
2023-05-05T12:40:17.325Z,34.89
2023-05-05T12:41:16.953Z,34.88
2023-05-05T12:42:17.031Z,34.90
2023-05-05T12:43:17.031Z,34.87
2023-05-05T12:44:17.081Z,34.90
2023-05-05T12:45:17.288Z,34.98
2023-05-05T12:46:17.172Z,34.90
2023-05-05T12:47:17.158Z,34.94
2023-05-05T12:48:17.283Z,34.94
2023-05-05T12:49:17.232Z,34.91
2023-05-05T12:50:17.281Z,34.97
2023-05-05T12:51:17.383Z,34.94
2023-05-05T12:52:17.357Z,34.94